createdAt,value
2023-05-22T00:02:08.493Z,11.40
2023-05-22T00:04:36.571Z,9.60
2023-05-22T00:07:04.854Z,13.40
2023-05-22T00:09:33.010Z,11.70
2023-05-22T00:12:00.992Z,8.50
2023-05-22T00:14:29.063Z,11.90
2023-05-22T00:16:58.724Z,9.80
2023-05-22T00:19:26.632Z,10.50
2023-05-22T00:21:54.656Z,10.90
2023-05-22T00:24:22.976Z,9.00
2023-05-22T00:26:50.866Z,10.30
2023-05-22T00:29:18.744Z,12.30
2023-05-22T00:31:47.407Z,8.50
2023-05-22T00:34:15.308Z,9.70
2023-05-22T00:36:43.287Z,9.30
2023-05-22T00:39:11.843Z,10.10
2023-05-22T00:41:39.827Z,9.80
2023-05-22T00:44:08.217Z,13.60
2023-05-22T00:46:36.726Z,8.00
2023-05-22T00:49:05.658Z,9.90
2023-05-22T00:51:33.896Z,8.70
2023-05-22T00:54:02.417Z,11.10
2023-05-22T00:56:30.339Z,10.50
2023-05-22T00:58:59.286Z,10.30
2023-05-22T01:01:33.964Z,9.80
2023-05-22T01:04:05.192Z,9.50
2023-05-22T01:06:33.370Z,11.90
2023-05-22T01:09:01.671Z,10.60
2023-05-22T01:11:40.007Z,9.80
2023-05-22T01:14:36.015Z,9.80
2023-05-22T01:17:24.572Z,9.70
2023-05-22T01:20:34.789Z,9.80
2023-05-22T01:23:43.976Z,9.60
2023-05-22T01:26:46.964Z,9.00
2023-05-22T01:29:24.418Z,11.50
2023-05-22T01:31:56.032Z,8.90
2023-05-22T01:34:27.000Z,9.30
2023-05-22T01:36:56.606Z,11.30
2023-05-22T01:39:28.919Z,9.00
2023-05-22T01:41:58.138Z,10.70
2023-05-22T01:44:26.058Z,9.10
2023-05-22T01:46:54.147Z,9.30
2023-05-22T01:49:22.724Z,8.90
2023-05-22T01:52:12.270Z,10.10
2023-05-22T01:54:50.650Z,9.70
2023-05-22T01:57:38.159Z,8.30
2023-05-22T02:00:10.944Z,9.40
2023-05-22T02:02:49.659Z,9.10
2023-05-22T02:05:22.685Z,9.50
2023-05-22T02:07:52.177Z,9.90
2023-05-22T02:10:21.893Z,7.60
2023-05-22T02:12:49.903Z,8.60
2023-05-22T02:15:18.572Z,11.00
2023-05-22T02:17:49.678Z,11.00
2023-05-22T02:20:18.041Z,8.60
2023-05-22T02:22:47.797Z,7.50
2023-05-22T02:25:17.534Z,9.80
2023-05-22T02:27:48.212Z,9.10
2023-05-22T02:30:16.408Z,8.60
2023-05-22T02:32:45.855Z,10.00
2023-05-22T02:35:14.061Z,9.20
2023-05-22T02:37:42.354Z,7.90
2023-05-22T02:40:10.994Z,8.10
2023-05-22T02:42:39.108Z,9.50
2023-05-22T02:45:07.699Z,10.90
2023-05-22T02:47:35.948Z,11.10
2023-05-22T02:50:04.340Z,8.30
2023-05-22T02:52:32.442Z,11.20
2023-05-22T02:55:00.865Z,8.70
2023-05-22T02:57:28.983Z,9.20
2023-05-22T02:59:57.721Z,8.90
2023-05-22T03:02:28.507Z,8.90
2023-05-22T03:04:59.257Z,10.20
2023-05-22T03:07:29.722Z,8.80
2023-05-22T03:09:58.231Z,10.60
2023-05-22T03:12:26.549Z,8.60
2023-05-22T03:14:54.715Z,8.00
2023-05-22T03:17:22.897Z,9.00
2023-05-22T03:19:50.944Z,8.60
2023-05-22T03:22:19.181Z,10.50
2023-05-22T03:24:47.210Z,9.70
2023-05-22T03:27:17.454Z,11.30
2023-05-22T03:29:47.703Z,9.00
2023-05-22T03:32:16.761Z,8.90
2023-05-22T03:34:45.051Z,9.60
2023-05-22T03:37:13.303Z,10.40
2023-05-22T03:39:41.376Z,9.40
2023-05-22T03:42:19.405Z,9.60
2023-05-22T03:44:47.409Z,10.70
2023-05-22T03:47:15.913Z,10.40
2023-05-22T03:49:44.181Z,13.50
2023-05-22T03:52:12.251Z,8.50
2023-05-22T03:54:40.188Z,9.80
2023-05-22T03:57:08.725Z,10.40
2023-05-22T03:59:37.219Z,9.40
2023-05-22T04:02:05.588Z,9.30
2023-05-22T04:04:38.834Z,9.60
2023-05-22T04:07:08.495Z,7.70
2023-05-22T04:09:36.924Z,10.10
2023-05-22T04:12:05.419Z,11.60
2023-05-22T04:14:33.526Z,13.20
2023-05-22T04:17:01.739Z,9.30
2023-05-22T04:19:30.387Z,13.20
2023-05-22T04:21:59.241Z,9.20
2023-05-22T04:24:27.927Z,8.80
2023-05-22T04:27:00.373Z,9.30
2023-05-22T04:29:29.464Z,7.90
2023-05-22T04:31:57.432Z,11.30
2023-05-22T04:34:26.332Z,8.20
2023-05-22T04:36:55.124Z,10.30
2023-05-22T04:39:26.313Z,8.90
2023-05-22T04:41:54.560Z,9.50
2023-05-22T04:44:23.159Z,10.30
2023-05-22T04:46:52.608Z,13.00
2023-05-22T04:49:20.767Z,9.60
2023-05-22T04:51:48.926Z,8.00
2023-05-22T04:54:16.878Z,10.40
2023-05-22T04:56:45.010Z,8.00
2023-05-22T04:59:16.323Z,8.20
2023-05-22T05:01:45.719Z,11.30
2023-05-22T05:04:13.761Z,9.10
2023-05-22T05:06:43.330Z,8.70
2023-05-22T05:09:11.572Z,7.50
2023-05-22T05:11:39.568Z,7.80
2023-05-22T05:14:07.745Z,7.20
2023-05-22T05:16:36.396Z,9.50
2023-05-22T05:19:04.407Z,8.00
2023-05-22T05:21:32.942Z,9.40
2023-05-22T05:24:02.596Z,9.00
2023-05-22T05:26:30.639Z,7.00
2023-05-22T05:28:59.438Z,10.10
2023-05-22T05:31:34.678Z,7.60
2023-05-22T05:34:18.560Z,8.20
2023-05-22T05:37:19.338Z,9.90
2023-05-22T05:39:47.705Z,8.60
2023-05-22T05:42:17.994Z,11.40
2023-05-22T05:44:46.888Z,9.10
2023-05-22T05:47:14.911Z,8.50
2023-05-22T05:49:43.294Z,8.80
2023-05-22T05:52:11.482Z,9.90
2023-05-22T05:54:39.527Z,8.10
2023-05-22T05:57:15.256Z,7.10
2023-05-22T05:59:43.936Z,7.70
2023-05-22T06:02:42.045Z,10.10
2023-05-22T06:05:21.107Z,10.80
2023-05-22T06:07:50.087Z,7.00
2023-05-22T06:10:19.685Z,6.80
2023-05-22T06:12:57.470Z,8.70
2023-05-22T06:15:26.122Z,7.40
2023-05-22T06:17:54.115Z,7.50
2023-05-22T06:20:25.365Z,9.80
2023-05-22T06:22:53.491Z,7.90
2023-05-22T06:25:21.563Z,7.00
2023-05-22T06:27:50.274Z,7.90
2023-05-22T06:30:25.435Z,8.80
2023-05-22T06:33:01.878Z,7.50
2023-05-22T06:35:31.184Z,8.00
2023-05-22T06:37:59.334Z,8.40
2023-05-22T06:40:28.200Z,9.10
2023-05-22T06:43:01.664Z,8.10
2023-05-22T06:45:56.386Z,7.10
2023-05-22T06:48:24.303Z,10.70
2023-05-22T06:51:26.731Z,7.80
2023-05-22T06:54:04.392Z,7.30
2023-05-22T06:56:33.339Z,9.20
2023-05-22T06:59:06.231Z,7.80
2023-05-22T07:01:52.856Z,7.70
2023-05-22T07:04:27.806Z,6.90
2023-05-22T07:07:01.995Z,7.80
2023-05-22T07:09:30.142Z,7.10
2023-05-22T07:11:58.117Z,6.50
2023-05-22T07:14:26.757Z,7.30
2023-05-22T07:16:54.755Z,9.50
2023-05-22T07:19:27.717Z,10.30
2023-05-22T07:21:57.249Z,10.40
2023-05-22T07:24:25.259Z,8.30
2023-05-22T07:26:54.091Z,7.10
2023-05-22T07:29:23.207Z,7.40
2023-05-22T07:31:53.459Z,7.20
2023-05-22T07:34:23.136Z,8.30
2023-05-22T07:36:51.055Z,9.30
2023-05-22T07:39:18.927Z,8.80
2023-05-22T07:41:50.796Z,7.60
2023-05-22T07:44:19.043Z,8.30
2023-05-22T07:46:47.739Z,8.80
2023-05-22T07:49:20.537Z,8.00
2023-05-22T07:51:48.632Z,7.40
2023-05-22T07:54:18.368Z,6.00
2023-05-22T07:56:48.446Z,6.60
2023-05-22T07:59:19.807Z,7.40
2023-05-22T08:01:47.811Z,6.30
2023-05-22T08:04:16.400Z,7.90
2023-05-22T08:06:44.568Z,8.00
2023-05-22T08:09:12.578Z,7.20
2023-05-22T08:11:42.503Z,5.80
2023-05-22T08:14:10.878Z,8.30
2023-05-22T08:16:39.124Z,9.40
2023-05-22T08:19:08.193Z,7.40
2023-05-22T08:21:37.841Z,7.70
2023-05-22T08:24:09.453Z,6.70
2023-05-22T08:26:38.944Z,7.00
2023-05-22T08:29:06.873Z,8.30
2023-05-22T08:31:36.133Z,7.80
2023-05-22T08:34:05.112Z,6.30
2023-05-22T08:36:34.310Z,6.80
2023-05-22T08:39:02.908Z,6.80
2023-05-22T08:41:31.263Z,6.90
2023-05-22T08:43:59.344Z,7.30
2023-05-22T08:46:30.402Z,6.80
2023-05-22T08:48:59.111Z,7.20
2023-05-22T08:51:29.444Z,7.30
2023-05-22T08:53:57.799Z,6.50
2023-05-22T08:56:29.149Z,7.00
2023-05-22T08:58:59.693Z,5.30
2023-05-22T09:01:29.684Z,6.00
2023-05-22T09:04:02.637Z,5.80
2023-05-22T09:06:31.999Z,6.10
2023-05-22T09:09:00.242Z,7.40
2023-05-22T09:11:28.408Z,6.20
2023-05-22T09:14:10.576Z,8.80
2023-05-22T09:16:53.350Z,6.00
2023-05-22T09:19:26.703Z,5.50
2023-05-22T09:22:05.498Z,6.50
2023-05-22T09:24:42.245Z,6.10
2023-05-22T09:27:12.079Z,6.60
2023-05-22T09:29:52.413Z,8.00
2023-05-22T09:32:21.192Z,6.90
2023-05-22T09:34:53.498Z,6.30
2023-05-22T09:37:29.052Z,6.20
2023-05-22T09:39:58.032Z,6.70
2023-05-22T09:42:26.260Z,5.70
2023-05-22T09:44:54.340Z,6.90
2023-05-22T09:47:22.555Z,7.40
2023-05-22T09:49:50.595Z,6.40
2023-05-22T09:52:21.047Z,6.20
2023-05-22T09:54:55.573Z,6.80
2023-05-22T09:57:28.106Z,8.00
2023-05-22T09:59:59.613Z,8.60
2023-05-22T10:02:28.418Z,7.30
2023-05-22T10:04:57.479Z,5.80
2023-05-22T10:07:33.184Z,4.70
2023-05-22T10:10:07.548Z,6.80
2023-05-22T10:12:43.510Z,7.80
2023-05-22T10:15:12.501Z,8.20
2023-05-22T10:17:42.178Z,6.20
2023-05-22T10:20:11.453Z,7.80
2023-05-22T10:22:39.640Z,5.20
2023-05-22T10:25:10.788Z,5.90
2023-05-22T10:27:40.958Z,7.20
2023-05-22T10:30:18.200Z,5.10
2023-05-22T10:33:12.473Z,5.50
2023-05-22T10:35:55.576Z,6.70
2023-05-22T10:38:42.164Z,6.80
2023-05-22T10:41:10.902Z,6.90
2023-05-22T10:43:42.965Z,6.30
2023-05-22T10:46:13.285Z,5.90
2023-05-22T10:48:46.020Z,5.80
2023-05-22T10:51:18.345Z,9.20
2023-05-22T10:53:53.324Z,7.00
2023-05-22T10:56:25.142Z,6.30
2023-05-22T10:58:58.426Z,5.40
2023-05-22T11:01:27.491Z,13.00
2023-05-22T11:04:08.983Z,6.10
2023-05-22T11:06:45.918Z,7.90
2023-05-22T11:09:30.756Z,5.90
2023-05-22T11:12:22.835Z,6.00
2023-05-22T11:15:03.040Z,9.30
2023-05-22T11:17:32.658Z,6.70
2023-05-22T11:20:16.267Z,5.70
2023-05-22T11:22:52.545Z,7.60
2023-05-22T11:25:20.751Z,6.10
2023-05-22T11:27:49.168Z,5.40
2023-05-22T11:30:17.699Z,8.20
2023-05-22T11:32:46.450Z,6.40
2023-05-22T11:35:17.494Z,6.80
2023-05-22T11:37:46.784Z,6.10
2023-05-22T11:40:21.207Z,4.80
2023-05-22T11:42:49.434Z,7.30
2023-05-22T11:45:21.205Z,5.30
2023-05-22T11:47:49.966Z,6.20
2023-05-22T11:50:29.151Z,6.40
2023-05-22T11:52:59.568Z,6.40
2023-05-22T11:55:27.805Z,7.60
2023-05-22T11:57:56.732Z,5.50
2023-05-22T12:00:26.416Z,6.90
2023-05-22T12:02:55.303Z,6.40
2023-05-22T12:05:23.418Z,5.90
2023-05-22T12:07:51.549Z,6.70
2023-05-22T12:10:20.194Z,6.90
2023-05-22T12:12:48.506Z,6.00
2023-05-22T12:15:19.728Z,7.70
2023-05-22T12:17:48.108Z,6.10
2023-05-22T12:20:16.321Z,6.30
2023-05-22T12:22:44.414Z,6.50
2023-05-22T12:25:20.525Z,5.40
2023-05-22T12:27:48.965Z,6.40
2023-05-22T12:30:17.490Z,6.00
2023-05-22T12:32:51.993Z,9.50
2023-05-22T12:35:20.323Z,6.70
2023-05-22T12:37:51.838Z,6.50
2023-05-22T12:40:19.937Z,7.10
2023-05-22T12:42:48.912Z,8.20
2023-05-22T12:45:18.077Z,5.90
2023-05-22T12:47:46.657Z,5.50
2023-05-22T12:50:14.919Z,5.80
2023-05-22T12:52:42.866Z,7.50
2023-05-22T12:55:12.030Z,5.90
2023-05-22T12:57:40.272Z,6.10
2023-05-22T13:00:10.052Z,6.40
2023-05-22T13:02:39.245Z,8.00
2023-05-22T13:05:08.042Z,7.40
2023-05-22T13:07:37.375Z,5.40
2023-05-22T13:10:06.075Z,5.30
2023-05-22T13:12:34.747Z,5.70
2023-05-22T13:15:03.057Z,8.20
2023-05-22T13:17:31.248Z,6.00
2023-05-22T13:19:59.682Z,6.30
2023-05-22T13:22:27.606Z,5.60
2023-05-22T13:24:55.967Z,6.70
2023-05-22T13:27:24.775Z,5.40
2023-05-22T13:29:52.972Z,6.10
2023-05-22T13:32:21.148Z,5.60
2023-05-22T13:34:49.198Z,5.70
2023-05-22T13:37:18.783Z,7.20
2023-05-22T13:39:46.954Z,5.70
2023-05-22T13:42:15.285Z,5.80
2023-05-22T13:44:43.346Z,4.70
2023-05-22T13:47:12.008Z,6.90
2023-05-22T13:49:40.174Z,6.60
2023-05-22T13:52:08.104Z,5.70
2023-05-22T13:54:36.426Z,6.20
2023-05-22T13:57:04.572Z,7.00
2023-05-22T13:59:32.533Z,5.30
2023-05-22T14:02:00.846Z,6.30
2023-05-22T14:04:29.276Z,5.70
2023-05-22T14:06:57.388Z,7.40
2023-05-22T14:09:25.765Z,5.90
2023-05-22T14:11:54.118Z,6.20
2023-05-22T14:14:24.129Z,6.30
2023-05-22T14:16:52.804Z,5.50
2023-05-22T14:19:21.200Z,7.10
2023-05-22T14:21:50.913Z,8.10
2023-05-22T14:24:19.257Z,5.70
2023-05-22T14:26:47.299Z,6.20
2023-05-22T14:29:15.903Z,5.00
2023-05-22T14:31:51.408Z,6.30
2023-05-22T14:34:20.073Z,5.50
2023-05-22T14:36:48.450Z,5.30
2023-05-22T14:39:16.707Z,6.30
2023-05-22T14:41:44.773Z,7.50
2023-05-22T14:44:12.909Z,6.60
2023-05-22T14:46:41.159Z,6.50
2023-05-22T14:49:09.231Z,5.30
2023-05-22T14:51:37.451Z,6.60
2023-05-22T14:54:06.142Z,6.10
2023-05-22T14:56:34.183Z,6.80
2023-05-22T14:59:02.360Z,7.90
2023-05-22T15:01:30.925Z,6.40
2023-05-22T15:03:59.039Z,6.70
2023-05-22T15:06:27.178Z,5.90
2023-05-22T15:08:55.203Z,4.90
2023-05-22T15:11:23.377Z,5.10
2023-05-22T15:13:51.724Z,6.70
2023-05-22T15:16:20.212Z,6.90
2023-05-22T15:18:51.227Z,5.40
2023-05-22T15:21:19.713Z,5.40
2023-05-22T15:23:48.350Z,5.60
2023-05-22T15:26:16.751Z,7.20
2023-05-22T15:28:44.749Z,11.20
2023-05-22T15:31:13.951Z,5.40
2023-05-22T15:33:42.332Z,5.20
2023-05-22T15:36:10.636Z,6.20
2023-05-22T15:38:38.668Z,5.30
2023-05-22T15:41:06.828Z,6.30
2023-05-22T15:43:34.775Z,6.30
2023-05-22T15:46:02.952Z,6.20
2023-05-22T15:48:34.072Z,5.60
2023-05-22T15:51:02.046Z,7.00
2023-05-22T15:53:30.329Z,7.50
2023-05-22T15:55:58.521Z,6.20
2023-05-22T15:58:26.710Z,6.90
2023-05-22T16:00:58.257Z,6.50
2023-05-22T16:03:26.856Z,7.00
2023-05-22T16:05:55.165Z,6.70
2023-05-22T16:08:23.235Z,5.60
2023-05-22T16:10:51.428Z,5.90
2023-05-22T16:13:19.665Z,6.80
2023-05-22T16:15:47.888Z,7.20
2023-05-22T16:18:16.107Z,6.60
2023-05-22T16:20:44.263Z,6.00
2023-05-22T16:23:12.263Z,5.70
2023-05-22T16:25:40.939Z,7.60
2023-05-22T16:28:11.051Z,6.50
2023-05-22T16:30:40.441Z,5.80
2023-05-22T16:33:09.082Z,6.30
2023-05-22T16:35:37.174Z,5.70
2023-05-22T16:38:07.238Z,6.50
2023-05-22T16:40:35.449Z,7.10
2023-05-22T16:43:04.604Z,5.20
2023-05-22T16:45:32.576Z,6.30
2023-05-22T16:48:00.799Z,5.60
2023-05-22T16:50:28.894Z,5.70
2023-05-22T16:52:57.096Z,6.90
2023-05-22T17:30:21.331Z,5.30
2023-05-22T17:32:53.554Z,6.30
2023-05-22T17:35:21.688Z,7.20
2023-05-22T17:37:49.854Z,6.80
2023-05-22T17:40:18.770Z,6.30
2023-05-22T17:42:47.016Z,4.80
2023-05-22T17:45:15.624Z,5.90
2023-05-22T17:47:44.315Z,7.60
2023-05-22T17:50:12.868Z,6.30
2023-05-22T17:52:41.308Z,6.10
2023-05-22T17:55:10.577Z,6.50
2023-05-22T17:57:38.779Z,6.30
2023-05-22T18:03:04.665Z,5.60
2023-05-22T18:05:32.717Z,7.00
2023-05-22T18:08:00.674Z,6.20
2023-05-22T18:10:28.580Z,6.70
2023-05-22T18:12:56.651Z,7.10
2023-05-22T18:15:24.669Z,5.20
2023-05-22T18:17:52.742Z,8.00
2023-05-22T18:20:21.151Z,6.20
2023-05-22T18:22:49.189Z,5.30
2023-05-22T18:25:17.500Z,5.80
2023-05-22T18:27:45.655Z,6.40
2023-05-22T18:30:14.128Z,7.80
2023-05-22T18:32:42.467Z,7.20
2023-05-22T18:35:11.070Z,7.70
2023-05-22T18:37:39.347Z,6.70
2023-05-22T18:40:09.480Z,11.50
2023-05-22T18:42:37.973Z,7.00
2023-05-22T18:45:07.057Z,8.40
2023-05-22T18:47:35.444Z,8.60
2023-05-22T18:50:04.978Z,11.10
2023-05-22T18:52:33.077Z,6.60
2023-05-22T18:55:01.168Z,7.20
2023-05-22T18:57:29.205Z,7.20
2023-05-22T18:59:57.238Z,11.50
2023-05-22T19:02:25.502Z,7.00
2023-05-22T19:04:53.738Z,6.60
2023-05-22T19:07:21.898Z,7.10
2023-05-22T19:09:49.869Z,7.70
2023-05-22T19:12:17.910Z,8.20
2023-05-22T19:14:48.469Z,7.20
2023-05-22T19:17:16.444Z,8.60
2023-05-22T19:19:44.649Z,7.50
2023-05-22T19:22:12.568Z,8.30
2023-05-22T19:24:40.560Z,7.80
2023-05-22T19:27:08.964Z,6.90
2023-05-22T19:29:37.265Z,6.70
2023-05-22T19:32:05.559Z,9.10
2023-05-22T19:34:33.438Z,8.70
2023-05-22T19:37:01.534Z,8.80
2023-05-22T19:39:29.437Z,9.00
2023-05-22T19:41:57.376Z,9.20
2023-05-22T19:44:25.426Z,7.90
2023-05-22T19:46:53.485Z,8.90
2023-05-22T19:49:21.505Z,8.10
2023-05-22T19:51:49.425Z,8.70
2023-05-22T19:54:17.363Z,8.90
2023-05-22T19:56:45.345Z,9.80
2023-05-22T19:59:13.377Z,9.20
2023-05-22T20:01:41.402Z,11.80
2023-05-22T20:04:09.494Z,8.10
2023-05-22T20:06:37.777Z,9.60
2023-05-22T20:09:05.990Z,9.30
2023-05-22T20:11:33.982Z,9.80
2023-05-22T20:14:02.612Z,7.00
2023-05-22T20:16:30.708Z,6.70
2023-05-22T20:18:58.847Z,8.90
2023-05-22T20:21:27.081Z,8.30
2023-05-22T20:23:55.768Z,9.00
2023-05-22T20:26:23.889Z,11.10
2023-05-22T20:28:52.274Z,10.00
2023-05-22T20:31:20.258Z,8.40
2023-05-22T20:33:48.351Z,9.00
2023-05-22T20:36:17.004Z,8.70
2023-05-22T20:38:44.956Z,8.30
2023-05-22T20:41:13.146Z,8.60
2023-05-22T20:43:43.524Z,8.50
2023-05-22T20:46:11.765Z,10.20
2023-05-22T20:48:40.596Z,12.60
2023-05-22T20:51:10.331Z,9.10
2023-05-22T20:53:38.324Z,9.60
2023-05-22T20:56:06.769Z,9.90
2023-05-22T20:58:34.729Z,12.30
2023-05-22T21:01:02.930Z,10.10
2023-05-22T21:03:30.899Z,10.50
2023-05-22T21:05:59.005Z,9.20
2023-05-22T21:08:26.976Z,11.00
2023-05-22T21:10:54.874Z,10.10
2023-05-22T21:13:23.015Z,9.70
2023-05-22T21:15:51.000Z,11.70
2023-05-22T21:18:22.083Z,9.60
2023-05-22T21:20:50.103Z,11.20
2023-05-22T21:23:17.977Z,12.70
2023-05-22T21:25:46.127Z,13.00
2023-05-22T21:28:14.127Z,12.60
2023-05-22T21:30:42.116Z,11.20
2023-05-22T21:33:10.184Z,10.40
2023-05-22T21:35:38.302Z,10.70
2023-05-22T21:38:06.195Z,9.90
2023-05-22T21:40:34.262Z,8.90
2023-05-22T21:43:02.321Z,9.20
2023-05-22T21:45:31.187Z,10.90
2023-05-22T21:47:59.342Z,8.60
2023-05-22T21:50:27.290Z,11.70
2023-05-22T21:52:55.881Z,11.30
2023-05-22T21:55:23.901Z,10.00
2023-05-22T21:57:51.932Z,11.80
2023-05-22T22:00:19.801Z,10.90
2023-05-22T22:02:47.904Z,9.60
2023-05-22T22:05:18.590Z,12.40
2023-05-22T22:07:46.805Z,10.50
2023-05-22T22:10:14.700Z,12.50
2023-05-22T22:12:42.713Z,9.90
2023-05-22T22:15:12.195Z,9.90
2023-05-22T22:17:40.802Z,11.10
2023-05-22T22:20:09.378Z,11.20
2023-05-22T22:22:37.289Z,9.60
2023-05-22T22:25:05.985Z,9.20
2023-05-22T22:27:34.031Z,8.80
2023-05-22T22:30:02.101Z,8.80
2023-05-22T22:32:30.519Z,14.20
2023-05-22T22:34:58.501Z,10.40
2023-05-22T22:37:26.377Z,7.40
2023-05-22T22:39:54.408Z,9.20
2023-05-22T22:42:22.413Z,10.60
2023-05-22T22:44:50.426Z,9.10
2023-05-22T22:47:18.360Z,11.20
2023-05-22T22:49:46.554Z,8.60
2023-05-22T22:52:14.513Z,8.50
2023-05-22T22:54:44.573Z,12.70
2023-05-22T22:57:12.862Z,8.40
2023-05-22T22:59:40.830Z,8.10
2023-05-22T23:02:09.375Z,8.50
2023-05-22T23:04:37.364Z,9.90
2023-05-22T23:07:05.682Z,9.10
2023-05-22T23:09:33.816Z,10.40
2023-05-22T23:12:02.605Z,8.10
2023-05-22T23:14:30.642Z,9.70
2023-05-22T23:16:58.579Z,7.80
2023-05-22T23:19:26.960Z,8.00
2023-05-22T23:21:54.899Z,9.10
2023-05-22T23:24:22.943Z,10.10
2023-05-22T23:26:52.889Z,8.80
2023-05-22T23:29:20.844Z,9.10
2023-05-22T23:31:50.662Z,10.60
2023-05-22T23:34:19.233Z,12.40
2023-05-22T23:36:47.181Z,10.90
2023-05-22T23:39:15.443Z,9.30
2023-05-22T23:41:44.625Z,8.70
2023-05-22T23:44:12.486Z,8.30
2023-05-22T23:46:41.310Z,9.30
2023-05-22T23:49:09.328Z,8.90
2023-05-22T23:51:37.318Z,7.90
2023-05-22T23:54:05.498Z,8.60
2023-05-22T23:56:33.446Z,7.20
2023-05-22T23:59:01.292Z,8.90
